Aviation Digital Data Service (ADDS)

Output produced by METARs form (1159 UTC 26 March 2019)
found at http://www.aviationweather.gov/metar/data/
 
METAR text: BIKF 261130Z 24022KT 9999 VCSH FEW026 BKN048 04/M03 Q1009
Conditions at: BIKF (KEFLAVIK (CIV/MI, IS) observed 1130 UTC 26 March 2019
Temperature: 4.0°C (39°F)
Dewpoint: -3.0°C (27°F) [RH = 60%]
Pressure (altimeter): 29.79 inches Hg (1009.0 mb)
Winds: from the WSW (240 degrees) at 25 MPH (22 knots; 11.3 m/s)
Visibility: 6 or more miles (10+ km)
Ceiling: 4800 feet AGL
Clouds: few clouds at 2600 feet AGL
broken clouds at 4800 feet AGL
Weather: VCSH  (showers in vicinity)

METAR text: BIKF 261100Z 23020KT 9999 VCSH FEW026CB BKN048 04/M02 Q1009
Conditions at: BIKF (KEFLAVIK (CIV/MI, IS) observed 1100 UTC 26 March 2019
Temperature: 4.0°C (39°F)
Dewpoint: -2.0°C (28°F) [RH = 65%]
Pressure (altimeter): 29.79 inches Hg (1009.0 mb)
Winds: from the SW (230 degrees) at 23 MPH (20 knots; 10.3 m/s)
Visibility: 6 or more miles (10+ km)
Ceiling: 4800 feet AGL
Clouds: few clouds at 2600 feet AGL
broken clouds at 4800 feet AGL
Weather: VCSH  (showers in vicinity)

METAR text: BIKF 261030Z 24020KT 9999 VCSH FEW026CB BKN044 04/M01 Q1009
Conditions at: BIKF (KEFLAVIK (CIV/MI, IS) observed 1030 UTC 26 March 2019
Temperature: 4.0°C (39°F)
Dewpoint: -1.0°C (30°F) [RH = 70%]
Pressure (altimeter): 29.79 inches Hg (1009.0 mb)
Winds: from the WSW (240 degrees) at 23 MPH (20 knots; 10.3 m/s)
Visibility: 6 or more miles (10+ km)
Ceiling: 4400 feet AGL
Clouds: few clouds at 2600 feet AGL
broken clouds at 4400 feet AGL
Weather: VCSH  (showers in vicinity)

METAR text: BIKF 261000Z 24022G33KT 9999 -SHRA FEW020CB SCT036 BKN047 04/00 Q1009
Conditions at: BIKF (KEFLAVIK (CIV/MI, IS) observed 1000 UTC 26 March 2019
Temperature: 4.0°C (39°F)
Dewpoint: 0.0°C (32°F) [RH = 75%]
Pressure (altimeter): 29.79 inches Hg (1009.0 mb)
Winds: from the WSW (240 degrees) at 25 MPH (22 knots; 11.3 m/s)
gusting to 38 MPH (33 knots; 17.0 m/s)
Visibility: 6 or more miles (10+ km)
Ceiling: 4700 feet AGL
Clouds: few clouds at 2000 feet AGL
scattered clouds at 3600 feet AGL
broken clouds at 4700 feet AGL
Weather: -SHRA  (light rain showers)

METAR text: BIKF 260930Z 24021KT 9999 VCSH FEW019CB SCT035 BKN047 04/M00 Q1009
Conditions at: BIKF (KEFLAVIK (CIV/MI, IS) observed 0930 UTC 26 March 2019
Temperature: 4.0°C (39°F)
Dewpoint: 0.0°C (32°F) [RH = 75%]
Pressure (altimeter): 29.79 inches Hg (1009.0 mb)
Winds: from the WSW (240 degrees) at 24 MPH (21 knots; 10.8 m/s)
Visibility: 6 or more miles (10+ km)
Ceiling: 4700 feet AGL
Clouds: few clouds at 1900 feet AGL
scattered clouds at 3500 feet AGL
broken clouds at 4700 feet AGL
Weather: VCSH  (showers in vicinity)

METAR text: BIKF 260900Z 24022KT 9999 VCSH FEW019CB SCT033 BKN046 04/M00 Q1008
Conditions at: BIKF (KEFLAVIK (CIV/MI, IS) observed 0900 UTC 26 March 2019
Temperature: 4.0°C (39°F)
Dewpoint: 0.0°C (32°F) [RH = 75%]
Pressure (altimeter): 29.76 inches Hg (1008.0 mb)
Winds: from the WSW (240 degrees) at 25 MPH (22 knots; 11.3 m/s)
Visibility: 6 or more miles (10+ km)
Ceiling: 4600 feet AGL
Clouds: few clouds at 1900 feet AGL
scattered clouds at 3300 feet AGL
broken clouds at 4600 feet AGL
Weather: VCSH  (showers in vicinity)

METAR text: BIKF 260830Z 24018KT 9999 -SHRA FEW016CB SCT028 BKN047 04/02 Q1008
Conditions at: BIKF (KEFLAVIK (CIV/MI, IS) observed 0830 UTC 26 March 2019
Temperature: 4.0°C (39°F)
Dewpoint: 2.0°C (36°F) [RH = 87%]
Pressure (altimeter): 29.76 inches Hg (1008.0 mb)
Winds: from the WSW (240 degrees) at 21 MPH (18 knots; 9.3 m/s)
Visibility: 6 or more miles (10+ km)
Ceiling: 4700 feet AGL
Clouds: few clouds at 1600 feet AGL
scattered clouds at 2800 feet AGL
broken clouds at 4700 feet AGL
Weather: -SHRA  (light rain showers)

METAR text: BIKF 260800Z 24019G30KT 9999 -SHRA SCT016CB BKN050 04/02 Q1008
Conditions at: BIKF (KEFLAVIK (CIV/MI, IS) observed 0800 UTC 26 March 2019
Temperature: 4.0°C (39°F)
Dewpoint: 2.0°C (36°F) [RH = 87%]
Pressure (altimeter): 29.76 inches Hg (1008.0 mb)
Winds: from the WSW (240 degrees) at 22 MPH (19 knots; 9.8 m/s)
gusting to 34 MPH (30 knots; 15.4 m/s)
Visibility: 6 or more miles (10+ km)
Ceiling: 5000 feet AGL
Clouds: scattered clouds at 1600 feet AGL
broken clouds at 5000 feet AGL
Weather: -SHRA  (light rain showers)

METAR text: BIKF 260730Z 24020KT 9999 -SHRA FEW013CB SCT017 BKN032 03/02 Q1007
Conditions at: BIKF (KEFLAVIK (CIV/MI, IS) observed 0730 UTC 26 March 2019
Temperature: 3.0°C (37°F)
Dewpoint: 2.0°C (36°F) [RH = 93%]
Pressure (altimeter): 29.73 inches Hg (1007.0 mb)
Winds: from the WSW (240 degrees) at 23 MPH (20 knots; 10.3 m/s)
Visibility: 6 or more miles (10+ km)
Ceiling: 3200 feet AGL
Clouds: few clouds at 1300 feet AGL
scattered clouds at 1700 feet AGL
broken clouds at 3200 feet AGL
Weather: -SHRA  (light rain showers)

METAR text: BIKF 260700Z 23017KT 9999 VCSH FEW019 SCT046 BKN170 04/02 Q1007
Conditions at: BIKF (KEFLAVIK (CIV/MI, IS) observed 0700 UTC 26 March 2019
Temperature: 4.0°C (39°F)
Dewpoint: 2.0°C (36°F) [RH = 87%]
Pressure (altimeter): 29.73 inches Hg (1007.0 mb)
Winds: from the SW (230 degrees) at 20 MPH (17 knots; 8.7 m/s)
Visibility: 6 or more miles (10+ km)
Ceiling: 17000 feet AGL
Clouds: few clouds at 1900 feet AGL
scattered clouds at 4600 feet AGL
broken clouds at 17000 feet AGL
Weather: VCSH  (showers in vicinity)

METAR text: BIKF 260630Z 23020KT 9999 VCSH FEW019 SCT035 05/02 Q1007
Conditions at: BIKF (KEFLAVIK (CIV/MI, IS) observed 0630 UTC 26 March 2019
Temperature: 5.0°C (41°F)
Dewpoint: 2.0°C (36°F) [RH = 81%]
Pressure (altimeter): 29.73 inches Hg (1007.0 mb)
Winds: from the SW (230 degrees) at 23 MPH (20 knots; 10.3 m/s)
Visibility: 6 or more miles (10+ km)
Ceiling: at least 12,000 feet AGL
Clouds: few clouds at 1900 feet AGL
scattered clouds at 3500 feet AGL
Weather: VCSH  (showers in vicinity)

METAR text: BIKF 260600Z 23019KT 9999 FEW019 SCT035 05/02 Q1007
Conditions at: BIKF (KEFLAVIK (CIV/MI, IS) observed 0600 UTC 26 March 2019
Temperature: 5.0°C (41°F)
Dewpoint: 2.0°C (36°F) [RH = 81%]
Pressure (altimeter): 29.73 inches Hg (1007.0 mb)
Winds: from the SW (230 degrees) at 22 MPH (19 knots; 9.8 m/s)
Visibility: 6 or more miles (10+ km)
Ceiling: at least 12,000 feet AGL
Clouds: few clouds at 1900 feet AGL
scattered clouds at 3500 feet AGL
Weather: no significant weather observed at this time

METAR text: BIKF 260530Z 24018KT 9999 FEW023 BKN035 04/02 Q1006
Conditions at: BIKF (KEFLAVIK (CIV/MI, IS) observed 0530 UTC 26 March 2019
Temperature: 4.0°C (39°F)
Dewpoint: 2.0°C (36°F) [RH = 87%]
Pressure (altimeter): 29.70 inches Hg (1006.0 mb)
Winds: from the WSW (240 degrees) at 21 MPH (18 knots; 9.3 m/s)
Visibility: 6 or more miles (10+ km)
Ceiling: 3500 feet AGL
Clouds: few clouds at 2300 feet AGL
broken clouds at 3500 feet AGL
Weather: no significant weather observed at this time

METAR text: BIKF 260500Z 24021KT 9999 BKN023 BKN032 05/02 Q1006
Conditions at: BIKF (KEFLAVIK (CIV/MI, IS) observed 0500 UTC 26 March 2019
Temperature: 5.0°C (41°F)
Dewpoint: 2.0°C (36°F) [RH = 81%]
Pressure (altimeter): 29.70 inches Hg (1006.0 mb)
Winds: from the WSW (240 degrees) at 24 MPH (21 knots; 10.8 m/s)
Visibility: 6 or more miles (10+ km)
Ceiling: 2300 feet AGL
Clouds: broken clouds at 2300 feet AGL
broken clouds at 3200 feet AGL
Weather: no significant weather observed at this time

METAR text: BIKF 260430Z 24023KT 9999 VCSH BKN020 04/02 Q1005
Conditions at: BIKF (KEFLAVIK (CIV/MI, IS) observed 0430 UTC 26 March 2019
Temperature: 4.0°C (39°F)
Dewpoint: 2.0°C (36°F) [RH = 87%]
Pressure (altimeter): 29.68 inches Hg (1005.0 mb)
Winds: from the WSW (240 degrees) at 26 MPH (23 knots; 11.8 m/s)
Visibility: 6 or more miles (10+ km)
Ceiling: 2000 feet AGL
Clouds: broken clouds at 2000 feet AGL
Weather: VCSH  (showers in vicinity)

METAR text: BIKF 260400Z 24022KT 7000 -DZ BKN020 OVC030 04/03 Q1005
Conditions at: BIKF (KEFLAVIK (CIV/MI, IS) observed 0400 UTC 26 March 2019
Temperature: 4.0°C (39°F)
Dewpoint: 3.0°C (37°F) [RH = 93%]
Pressure (altimeter): 29.68 inches Hg (1005.0 mb)
Winds: from the WSW (240 degrees) at 25 MPH (22 knots; 11.3 m/s)
Visibility: 4 miles ( 7 km)
Ceiling: 2000 feet AGL
Clouds: broken clouds at 2000 feet AGL
overcast cloud deck at 3000 feet AGL
Weather: -DZ  (light drizzle)

METAR text: BIKF 260330Z 24027KT 9999 -DZ BKN020 OVC030 05/03 Q1005
Conditions at: BIKF (KEFLAVIK (CIV/MI, IS) observed 0330 UTC 26 March 2019
Temperature: 5.0°C (41°F)
Dewpoint: 3.0°C (37°F) [RH = 87%]
Pressure (altimeter): 29.68 inches Hg (1005.0 mb)
Winds: from the WSW (240 degrees) at 31 MPH (27 knots; 13.9 m/s)
Visibility: 6 or more miles (10+ km)
Ceiling: 2000 feet AGL
Clouds: broken clouds at 2000 feet AGL
overcast cloud deck at 3000 feet AGL
Weather: -DZ  (light drizzle)

METAR text: BIKF 260300Z 24030G40KT 8000 -DZRA BKN017 OVC030 05/02 Q1004
Conditions at: BIKF (KEFLAVIK (CIV/MI, IS) observed 0300 UTC 26 March 2019
Temperature: 5.0°C (41°F)
Dewpoint: 2.0°C (36°F) [RH = 81%]
Pressure (altimeter): 29.65 inches Hg (1004.0 mb)
Winds: from the WSW (240 degrees) at 34 MPH (30 knots; 15.4 m/s)
gusting to 46 MPH (40 knots; 20.6 m/s)
Visibility: 5 miles ( 8 km)
Ceiling: 1700 feet AGL
Clouds: broken clouds at 1700 feet AGL
overcast cloud deck at 3000 feet AGL
Weather: -DZ -RA  (light drizzle, light rain)

METAR text: BIKF 260230Z 23027KT 9999 VCSH OVC009 05/03 Q1003
Conditions at: BIKF (KEFLAVIK (CIV/MI, IS) observed 0230 UTC 26 March 2019
Temperature: 5.0°C (41°F)
Dewpoint: 3.0°C (37°F) [RH = 87%]
Pressure (altimeter): 29.62 inches Hg (1003.0 mb)
Winds: from the SW (230 degrees) at 31 MPH (27 knots; 13.9 m/s)
Visibility: 6 or more miles (10+ km)
Ceiling: 900 feet AGL
Clouds: overcast cloud deck at 900 feet AGL
Weather: VCSH  (showers in vicinity)

METAR text: BIKF 260200Z 24028G40KT 5000 -DZRA OVC012 05/05 Q1003
Conditions at: BIKF (KEFLAVIK (CIV/MI, IS) observed 0200 UTC 26 March 2019
Temperature: 5.0°C (41°F)
Dewpoint: 5.0°C (41°F) [RH = 100%]
Pressure (altimeter): 29.62 inches Hg (1003.0 mb)
Winds: from the WSW (240 degrees) at 32 MPH (28 knots; 14.4 m/s)
gusting to 46 MPH (40 knots; 20.6 m/s)
Visibility: 3 miles ( 5 km)
Ceiling: 1200 feet AGL
Clouds: overcast cloud deck at 1200 feet AGL
Weather: -DZ -RA  (light drizzle, light rain)

METAR text: BIKF 260130Z 23028G39KT 9999 -DZ BKN014 05/04 Q1002
Conditions at: BIKF (KEFLAVIK (CIV/MI, IS) observed 0130 UTC 26 March 2019
Temperature: 5.0°C (41°F)
Dewpoint: 4.0°C (39°F) [RH = 93%]
Pressure (altimeter): 29.59 inches Hg (1002.0 mb)
Winds: from the SW (230 degrees) at 32 MPH (28 knots; 14.4 m/s)
gusting to 45 MPH (39 knots; 20.1 m/s)
Visibility: 6 or more miles (10+ km)
Ceiling: 1400 feet AGL
Clouds: broken clouds at 1400 feet AGL
Weather: -DZ  (light drizzle)

METAR text: BIKF 260100Z 23027G37KT 9999 VCSH BKN015 05/04 Q1002
Conditions at: BIKF (KEFLAVIK (CIV/MI, IS) observed 0100 UTC 26 March 2019
Temperature: 5.0°C (41°F)
Dewpoint: 4.0°C (39°F) [RH = 93%]
Pressure (altimeter): 29.59 inches Hg (1002.0 mb)
Winds: from the SW (230 degrees) at 31 MPH (27 knots; 13.9 m/s)
gusting to 43 MPH (37 knots; 19.0 m/s)
Visibility: 6 or more miles (10+ km)
Ceiling: 1500 feet AGL
Clouds: broken clouds at 1500 feet AGL
Weather: VCSH  (showers in vicinity)

METAR text: BIKF 260030Z 22029KT 9999 VCSH BKN015 06/03 Q1001
Conditions at: BIKF (KEFLAVIK (CIV/MI, IS) observed 0030 UTC 26 March 2019
Temperature: 6.0°C (43°F)
Dewpoint: 3.0°C (37°F) [RH = 81%]
Pressure (altimeter): 29.56 inches Hg (1001.0 mb)
Winds: from the SW (220 degrees) at 33 MPH (29 knots; 14.9 m/s)
Visibility: 6 or more miles (10+ km)
Ceiling: 1500 feet AGL
Clouds: broken clouds at 1500 feet AGL
Weather: VCSH  (showers in vicinity)

METAR text: BIKF 260000Z 22027G38KT 9999 VCSH SCT013 BKN020 06/04 Q1001 REDZ
Conditions at: BIKF (KEFLAVIK (CIV/MI, IS) observed 0000 UTC 26 March 2019
Temperature: 6.0°C (43°F)
Dewpoint: 4.0°C (39°F) [RH = 87%]
Pressure (altimeter): 29.56 inches Hg (1001.0 mb)
Winds: from the SW (220 degrees) at 31 MPH (27 knots; 13.9 m/s)
gusting to 44 MPH (38 knots; 19.5 m/s)
Visibility: 6 or more miles (10+ km)
Ceiling: 2000 feet AGL
Clouds: scattered clouds at 1300 feet AGL
broken clouds at 2000 feet AGL
Weather: VCSH  (showers in vicinity)

METAR text: BIKF 252330Z 22028G38KT 9999 VCSH FEW008 SCT015 BKN028 05/04 Q1000
Conditions at: BIKF (KEFLAVIK (CIV/MI, IS) observed 2330 UTC 25 March 2019
Temperature: 5.0°C (41°F)
Dewpoint: 4.0°C (39°F) [RH = 93%]
Pressure (altimeter): 29.53 inches Hg (1000.0 mb)
Winds: from the SW (220 degrees) at 32 MPH (28 knots; 14.4 m/s)
gusting to 44 MPH (38 knots; 19.5 m/s)
Visibility: 6 or more miles (10+ km)
Ceiling: 2800 feet AGL
Clouds: few clouds at 800 feet AGL
scattered clouds at 1500 feet AGL
broken clouds at 2800 feet AGL
Weather: VCSH  (showers in vicinity)

METAR text: BIKF 252300Z 22029KT 8000 VCSH BR FEW008 SCT015 BKN028 05/04 Q0999
Conditions at: BIKF (KEFLAVIK (CIV/MI, IS) observed 2300 UTC 25 March 2019
Temperature: 5.0°C (41°F)
Dewpoint: 4.0°C (39°F) [RH = 93%]
Pressure (altimeter): 29.50 inches Hg (999.0 mb)
Winds: from the SW (220 degrees) at 33 MPH (29 knots; 14.9 m/s)
Visibility: 5 miles ( 8 km)
Ceiling: 2800 feet AGL
Clouds: few clouds at 800 feet AGL
scattered clouds at 1500 feet AGL
broken clouds at 2800 feet AGL
Weather: VCSH BR  (showers in vicinity, mist)

METAR text: BIKF 252230Z 21029KT 5000 -DZRA BR FEW008 SCT015 BKN028 06/05 Q0999
Conditions at: BIKF (KEFLAVIK (CIV/MI, IS) observed 2230 UTC 25 March 2019
Temperature: 6.0°C (43°F)
Dewpoint: 5.0°C (41°F) [RH = 93%]
Pressure (altimeter): 29.50 inches Hg (999.0 mb)
Winds: from the SSW (210 degrees) at 33 MPH (29 knots; 14.9 m/s)
Visibility: 3 miles ( 5 km)
Ceiling: 2800 feet AGL
Clouds: few clouds at 800 feet AGL
scattered clouds at 1500 feet AGL
broken clouds at 2800 feet AGL
Weather: -DZ -RA BR  (light drizzle, light rain, mist)

METAR text: BIKF 252200Z 20026KT 9999 -DZRA FEW010 BKN029 BKN038 06/04 Q0999
Conditions at: BIKF (KEFLAVIK (CIV/MI, IS) observed 2200 UTC 25 March 2019
Temperature: 6.0°C (43°F)
Dewpoint: 4.0°C (39°F) [RH = 87%]
Pressure (altimeter): 29.50 inches Hg (999.0 mb)
Winds: from the SSW (200 degrees) at 30 MPH (26 knots; 13.4 m/s)
Visibility: 6 or more miles (10+ km)
Ceiling: 2900 feet AGL
Clouds: few clouds at 1000 feet AGL
broken clouds at 2900 feet AGL
broken clouds at 3800 feet AGL
Weather: -DZ -RA  (light drizzle, light rain)

METAR text: BIKF 252130Z 21031G42KT 9999 VCSH FEW010 SCT029 BKN046 06/04 Q0999
Conditions at: BIKF (KEFLAVIK (CIV/MI, IS) observed 2130 UTC 25 March 2019
Temperature: 6.0°C (43°F)
Dewpoint: 4.0°C (39°F) [RH = 87%]
Pressure (altimeter): 29.50 inches Hg (999.0 mb)
Winds: from the SSW (210 degrees) at 36 MPH (31 knots; 15.9 m/s)
gusting to 48 MPH (42 knots; 21.6 m/s)
Visibility: 6 or more miles (10+ km)
Ceiling: 4600 feet AGL
Clouds: few clouds at 1000 feet AGL
scattered clouds at 2900 feet AGL
broken clouds at 4600 feet AGL
Weather: VCSH  (showers in vicinity)

METAR text: BIKF 252100Z 20025KT 9999 FEW010 SCT029 BKN046 07/04 Q0999
Conditions at: BIKF (KEFLAVIK (CIV/MI, IS) observed 2100 UTC 25 March 2019
Temperature: 7.0°C (45°F)
Dewpoint: 4.0°C (39°F) [RH = 81%]
Pressure (altimeter): 29.50 inches Hg (999.0 mb)
Winds: from the SSW (200 degrees) at 29 MPH (25 knots; 12.9 m/s)
Visibility: 6 or more miles (10+ km)
Ceiling: 4600 feet AGL
Clouds: few clouds at 1000 feet AGL
scattered clouds at 2900 feet AGL
broken clouds at 4600 feet AGL
Weather: no significant weather observed at this time

METAR text: BIKF 252030Z 20026KT 9999 FEW005 SCT018 BKN026 07/04 Q0999
Conditions at: BIKF (KEFLAVIK (CIV/MI, IS) observed 2030 UTC 25 March 2019
Temperature: 7.0°C (45°F)
Dewpoint: 4.0°C (39°F) [RH = 81%]
Pressure (altimeter): 29.50 inches Hg (999.0 mb)
Winds: from the SSW (200 degrees) at 30 MPH (26 knots; 13.4 m/s)
Visibility: 6 or more miles (10+ km)
Ceiling: 2600 feet AGL
Clouds: few clouds at 500 feet AGL
scattered clouds at 1800 feet AGL
broken clouds at 2600 feet AGL
Weather: no significant weather observed at this time

METAR text: BIKF 252000Z 20026KT 9999 VCSH FEW005 SCT018 BKN026 07/06 Q0999
Conditions at: BIKF (KEFLAVIK (CIV/MI, IS) observed 2000 UTC 25 March 2019
Temperature: 7.0°C (45°F)
Dewpoint: 6.0°C (43°F) [RH = 93%]
Pressure (altimeter): 29.50 inches Hg (999.0 mb)
Winds: from the SSW (200 degrees) at 30 MPH (26 knots; 13.4 m/s)
Visibility: 6 or more miles (10+ km)
Ceiling: 2600 feet AGL
Clouds: few clouds at 500 feet AGL
scattered clouds at 1800 feet AGL
broken clouds at 2600 feet AGL
Weather: VCSH  (showers in vicinity)

METAR text: BIKF 251930Z 20025KT 9999 VCSH FEW005 BKN010 BKN026 07/07 Q0998
Conditions at: BIKF (KEFLAVIK (CIV/MI, IS) observed 1930 UTC 25 March 2019
Temperature: 7.0°C (45°F)
Dewpoint: 7.0°C (45°F) [RH = 100%]
Pressure (altimeter): 29.47 inches Hg (998.0 mb)
Winds: from the SSW (200 degrees) at 29 MPH (25 knots; 12.9 m/s)
Visibility: 6 or more miles (10+ km)
Ceiling: 1000 feet AGL
Clouds: few clouds at 500 feet AGL
broken clouds at 1000 feet AGL
broken clouds at 2600 feet AGL
Weather: VCSH  (showers in vicinity)

METAR text: BIKF 251900Z 19026KT 5000 -DZRA BR SCT003 BKN006 OVC009 08/08 Q0998
Conditions at: BIKF (KEFLAVIK (CIV/MI, IS) observed 1900 UTC 25 March 2019
Temperature: 8.0°C (46°F)
Dewpoint: 8.0°C (46°F) [RH = 100%]
Pressure (altimeter): 29.47 inches Hg (998.0 mb)
Winds: from the S (190 degrees) at 30 MPH (26 knots; 13.4 m/s)
Visibility: 3 miles ( 5 km)
Ceiling: 600 feet AGL
Clouds: scattered clouds at 300 feet AGL
broken clouds at 600 feet AGL
overcast cloud deck at 900 feet AGL
Weather: -DZ -RA BR  (light drizzle, light rain, mist)

METAR text: BIKF 251830Z 18026G36KT 5000 -RA BR SCT003 BKN006 OVC009 07/07 Q0998
Conditions at: BIKF (KEFLAVIK (CIV/MI, IS) observed 1830 UTC 25 March 2019
Temperature: 7.0°C (45°F)
Dewpoint: 7.0°C (45°F) [RH = 100%]
Pressure (altimeter): 29.47 inches Hg (998.0 mb)
Winds: from the S (180 degrees) at 30 MPH (26 knots; 13.4 m/s)
gusting to 41 MPH (36 knots; 18.5 m/s)
Visibility: 3 miles ( 5 km)
Ceiling: 600 feet AGL
Clouds: scattered clouds at 300 feet AGL
broken clouds at 600 feet AGL
overcast cloud deck at 900 feet AGL
Weather: -RA BR  (light rain, mist)

METAR text: BIKF 251800Z 18026KT 2500 -RA BR SCT003 BKN006 OVC010 07/07 Q0999
Conditions at: BIKF (KEFLAVIK (CIV/MI, IS) observed 1800 UTC 25 March 2019
Temperature: 7.0°C (45°F)
Dewpoint: 7.0°C (45°F) [RH = 100%]
Pressure (altimeter): 29.50 inches Hg (999.0 mb)
Winds: from the S (180 degrees) at 30 MPH (26 knots; 13.4 m/s)
Visibility: 1.55 miles (2.49 km)
Ceiling: 600 feet AGL
Clouds: scattered clouds at 300 feet AGL
broken clouds at 600 feet AGL
overcast cloud deck at 1000 feet AGL
Weather: -RA BR  (light rain, mist)

METAR text: BIKF 251730Z 17022KT 7000 -RA BKN003 SCT006 OVC011 07/07 Q0999
Conditions at: BIKF (KEFLAVIK (CIV/MI, IS) observed 1730 UTC 25 March 2019
Temperature: 7.0°C (45°F)
Dewpoint: 7.0°C (45°F) [RH = 100%]
Pressure (altimeter): 29.50 inches Hg (999.0 mb)
Winds: from the S (170 degrees) at 25 MPH (22 knots; 11.3 m/s)
Visibility: 4 miles ( 7 km)
Ceiling: 300 feet AGL
Clouds: broken clouds at 300 feet AGL
scattered clouds at 600 feet AGL
overcast cloud deck at 1100 feet AGL
Weather: -RA  (light rain)

METAR text: BIKF 251700Z 17022KT 7000 RA SCT003 BKN005 OVC011 07/07 Q1000
Conditions at: BIKF (KEFLAVIK (CIV/MI, IS) observed 1700 UTC 25 March 2019
Temperature: 7.0°C (45°F)
Dewpoint: 7.0°C (45°F) [RH = 100%]
Pressure (altimeter): 29.53 inches Hg (1000.0 mb)
Winds: from the S (170 degrees) at 25 MPH (22 knots; 11.3 m/s)
Visibility: 4 miles ( 7 km)
Ceiling: 500 feet AGL
Clouds: scattered clouds at 300 feet AGL
broken clouds at 500 feet AGL
overcast cloud deck at 1100 feet AGL
Weather: RA  (moderate rain)

METAR text: BIKF 251630Z 17022KT 2000 RA BR SCT003 BKN005 OVC014 07/07 Q1000
Conditions at: BIKF (KEFLAVIK (CIV/MI, IS) observed 1630 UTC 25 March 2019
Temperature: 7.0°C (45°F)
Dewpoint: 7.0°C (45°F) [RH = 100%]
Pressure (altimeter): 29.53 inches Hg (1000.0 mb)
Winds: from the S (170 degrees) at 25 MPH (22 knots; 11.3 m/s)
Visibility: 1.24 miles (2.00 km)
Ceiling: 500 feet AGL
Clouds: scattered clouds at 300 feet AGL
broken clouds at 500 feet AGL
overcast cloud deck at 1400 feet AGL
Weather: RA BR  (moderate rain, mist)

METAR text: BIKF 251600Z 17023KT 3000 -RA BR SCT003 BKN005 OVC014 07/07 Q1001
Conditions at: BIKF (KEFLAVIK (CIV/MI, IS) observed 1600 UTC 25 March 2019
Temperature: 7.0°C (45°F)
Dewpoint: 7.0°C (45°F) [RH = 100%]
Pressure (altimeter): 29.56 inches Hg (1001.0 mb)
Winds: from the S (170 degrees) at 26 MPH (23 knots; 11.8 m/s)
Visibility: 1.86 miles (2.99 km)
Ceiling: 500 feet AGL
Clouds: scattered clouds at 300 feet AGL
broken clouds at 500 feet AGL
overcast cloud deck at 1400 feet AGL
Weather: -RA BR  (light rain, mist)

METAR text: BIKF 251530Z 17023KT 3000 R19/1000N -RA BR SCT003 BKN005 OVC014 07/07 Q1002
Conditions at: BIKF (KEFLAVIK (CIV/MI, IS) observed 1530 UTC 25 March 2019
Temperature: 7.0°C (45°F)
Dewpoint: 7.0°C (45°F) [RH = 100%]
Pressure (altimeter): 29.59 inches Hg (1002.0 mb)
Winds: from the S (170 degrees) at 26 MPH (23 knots; 11.8 m/s)
Visibility: 1.86 miles (2.99 km)
Ceiling: 500 feet AGL
Clouds: scattered clouds at 300 feet AGL
broken clouds at 500 feet AGL
overcast cloud deck at 1400 feet AGL
Weather: -RA BR  (light rain, mist)

METAR text: BIKF 251500Z 17022KT 3000 R19/1300D -RA BR SCT003 BKN005 OVC014 07/07 Q1002
Conditions at: BIKF (KEFLAVIK (CIV/MI, IS) observed 1500 UTC 25 March 2019
Temperature: 7.0°C (45°F)
Dewpoint: 7.0°C (45°F) [RH = 100%]
Pressure (altimeter): 29.59 inches Hg (1002.0 mb)
Winds: from the S (170 degrees) at 25 MPH (22 knots; 11.3 m/s)
Visibility: 1.86 miles (2.99 km)
Ceiling: 500 feet AGL
Clouds: scattered clouds at 300 feet AGL
broken clouds at 500 feet AGL
overcast cloud deck at 1400 feet AGL
Weather: -RA BR  (light rain, mist)

METAR text: BIKF 251431Z 17022KT 1200 R19/0900U -RA BR SCT002 BKN006 OVC014 07/07 Q1003
Conditions at: BIKF (KEFLAVIK (CIV/MI, IS) observed 1431 UTC 25 March 2019
Temperature: 7.0°C (45°F)
Dewpoint: 7.0°C (45°F) [RH = 100%]
Pressure (altimeter): 29.62 inches Hg (1003.0 mb)
Winds: from the S (170 degrees) at 25 MPH (22 knots; 11.3 m/s)
Visibility: 0.75 miles (1.21 km)
Ceiling: 600 feet AGL
Clouds: scattered clouds at 200 feet AGL
broken clouds at 600 feet AGL
overcast cloud deck at 1400 feet AGL
Weather: -RA BR  (light rain, mist)

METAR text: BIKF 251401Z 17023KT 1200 R19/0900N -RA BR BKN003 OVC005 07/07 Q1004
Conditions at: BIKF (KEFLAVIK (CIV/MI, IS) observed 1401 UTC 25 March 2019
Temperature: 7.0°C (45°F)
Dewpoint: 7.0°C (45°F) [RH = 100%]
Pressure (altimeter): 29.65 inches Hg (1004.0 mb)
Winds: from the S (170 degrees) at 26 MPH (23 knots; 11.8 m/s)
Visibility: 0.75 miles (1.21 km)
Ceiling: 300 feet AGL
Clouds: broken clouds at 300 feet AGL
overcast cloud deck at 500 feet AGL
Weather: -RA BR  (light rain, mist)

METAR text: BIKF 251331Z 16022G32KT 1200 R19/1200U -RA BR SCT003 BKN005 OVC015 07/07 Q1004
Conditions at: BIKF (KEFLAVIK (CIV/MI, IS) observed 1331 UTC 25 March 2019
Temperature: 7.0°C (45°F)
Dewpoint: 7.0°C (45°F) [RH = 100%]
Pressure (altimeter): 29.65 inches Hg (1004.0 mb)
Winds: from the SSE (160 degrees) at 25 MPH (22 knots; 11.3 m/s)
gusting to 37 MPH (32 knots; 16.5 m/s)
Visibility: 0.75 miles (1.21 km)
Ceiling: 500 feet AGL
Clouds: scattered clouds at 300 feet AGL
broken clouds at 500 feet AGL
overcast cloud deck at 1500 feet AGL
Weather: -RA BR  (light rain, mist)

METAR text: BIKF 251300Z 16021KT 5000 -RA BR SCT003 BKN005 OVC015 07/07 Q1005
Conditions at: BIKF (KEFLAVIK (CIV/MI, IS) observed 1300 UTC 25 March 2019
Temperature: 7.0°C (45°F)
Dewpoint: 7.0°C (45°F) [RH = 100%]
Pressure (altimeter): 29.68 inches Hg (1005.0 mb)
Winds: from the SSE (160 degrees) at 24 MPH (21 knots; 10.8 m/s)
Visibility: 3 miles ( 5 km)
Ceiling: 500 feet AGL
Clouds: scattered clouds at 300 feet AGL
broken clouds at 500 feet AGL
overcast cloud deck at 1500 feet AGL
Weather: -RA BR  (light rain, mist)

METAR text: BIKF 251230Z 16022KT 2000 RA BR BKN003 BKN005 OVC015 07/07 Q1005
Conditions at: BIKF (KEFLAVIK (CIV/MI, IS) observed 1230 UTC 25 March 2019
Temperature: 7.0°C (45°F)
Dewpoint: 7.0°C (45°F) [RH = 100%]
Pressure (altimeter): 29.68 inches Hg (1005.0 mb)
Winds: from the SSE (160 degrees) at 25 MPH (22 knots; 11.3 m/s)
Visibility: 1.24 miles (2.00 km)
Ceiling: 300 feet AGL
Clouds: broken clouds at 300 feet AGL
broken clouds at 500 feet AGL
overcast cloud deck at 1500 feet AGL
Weather: RA BR  (moderate rain, mist)

METAR text: BIKF 251200Z 16022KT 3000 R19/0900N RA BKN003 BKN006 OVC015 07/07 Q1006
Conditions at: BIKF (KEFLAVIK (CIV/MI, IS) observed 1200 UTC 25 March 2019
Temperature: 7.0°C (45°F)
Dewpoint: 7.0°C (45°F) [RH = 100%]
Pressure (altimeter): 29.70 inches Hg (1006.0 mb)
Winds: from the SSE (160 degrees) at 25 MPH (22 knots; 11.3 m/s)
Visibility: 1.86 miles (2.99 km)
Ceiling: 300 feet AGL
Clouds: broken clouds at 300 feet AGL
broken clouds at 600 feet AGL
overcast cloud deck at 1500 feet AGL
Weather: RA  (moderate rain)

METAR text: BIKF 251130Z 15024KT 4000 RA BKN003 BKN006 OVC015 07/07 Q1006
Conditions at: BIKF (KEFLAVIK (CIV/MI, IS) observed 1130 UTC 25 March 2019
Temperature: 7.0°C (45°F)
Dewpoint: 7.0°C (45°F) [RH = 100%]
Pressure (altimeter): 29.70 inches Hg (1006.0 mb)
Winds: from the SSE (150 degrees) at 28 MPH (24 knots; 12.3 m/s)
Visibility: 2.49 miles (4.01 km)
Ceiling: 300 feet AGL
Clouds: broken clouds at 300 feet AGL
broken clouds at 600 feet AGL
overcast cloud deck at 1500 feet AGL
Weather: RA  (moderate rain)

METAR text: BIKF 251100Z 15025KT 4000 RA BKN004 BKN006 07/07 Q1007
Conditions at: BIKF (KEFLAVIK (CIV/MI, IS) observed 1100 UTC 25 March 2019
Temperature: 7.0°C (45°F)
Dewpoint: 7.0°C (45°F) [RH = 100%]
Pressure (altimeter): 29.73 inches Hg (1007.0 mb)
Winds: from the SSE (150 degrees) at 29 MPH (25 knots; 12.9 m/s)
Visibility: 2.49 miles (4.01 km)
Ceiling: 400 feet AGL
Clouds: broken clouds at 400 feet AGL
broken clouds at 600 feet AGL
Weather: RA  (moderate rain)

METAR text: BIKF 251030Z 15025G35KT 8000 -RA SCT004 BKN006 BKN017 07/07 Q1007
Conditions at: BIKF (KEFLAVIK (CIV/MI, IS) observed 1030 UTC 25 March 2019
Temperature: 7.0°C (45°F)
Dewpoint: 7.0°C (45°F) [RH = 100%]
Pressure (altimeter): 29.73 inches Hg (1007.0 mb)
Winds: from the SSE (150 degrees) at 29 MPH (25 knots; 12.9 m/s)
gusting to 40 MPH (35 knots; 18.0 m/s)
Visibility: 5 miles ( 8 km)
Ceiling: 600 feet AGL
Clouds: scattered clouds at 400 feet AGL
broken clouds at 600 feet AGL
broken clouds at 1700 feet AGL
Weather: -RA  (light rain)

METAR text: BIKF 251000Z 15025G35KT 9000 -RA FEW004 SCT006 BKN015 06/06 Q1008
Conditions at: BIKF (KEFLAVIK (CIV/MI, IS) observed 1000 UTC 25 March 2019
Temperature: 6.0°C (43°F)
Dewpoint: 6.0°C (43°F) [RH = 100%]
Pressure (altimeter): 29.76 inches Hg (1008.0 mb)
Winds: from the SSE (150 degrees) at 29 MPH (25 knots; 12.9 m/s)
gusting to 40 MPH (35 knots; 18.0 m/s)
Visibility: 6 miles ( 9 km)
Ceiling: 1500 feet AGL
Clouds: few clouds at 400 feet AGL
scattered clouds at 600 feet AGL
broken clouds at 1500 feet AGL
Weather: -RA  (light rain)

METAR text: BIKF 250930Z 15028KT 5000 DZRA FEW004 BKN006 BKN025 06/06 Q1008
Conditions at: BIKF (KEFLAVIK (CIV/MI, IS) observed 0930 UTC 25 March 2019
Temperature: 6.0°C (43°F)
Dewpoint: 6.0°C (43°F) [RH = 100%]
Pressure (altimeter): 29.76 inches Hg (1008.0 mb)
Winds: from the SSE (150 degrees) at 32 MPH (28 knots; 14.4 m/s)
Visibility: 3 miles ( 5 km)
Ceiling: 600 feet AGL
Clouds: few clouds at 400 feet AGL
broken clouds at 600 feet AGL
broken clouds at 2500 feet AGL
Weather: DZ RA  (moderate drizzle, moderate rain)

METAR text: BIKF 250900Z 14028G38KT 4000 RA SCT004 BKN006 BKN015 06/06 Q1008
Conditions at: BIKF (KEFLAVIK (CIV/MI, IS) observed 0900 UTC 25 March 2019
Temperature: 6.0°C (43°F)
Dewpoint: 6.0°C (43°F) [RH = 100%]
Pressure (altimeter): 29.76 inches Hg (1008.0 mb)
Winds: from the SE (140 degrees) at 32 MPH (28 knots; 14.4 m/s)
gusting to 44 MPH (38 knots; 19.5 m/s)
Visibility: 2.49 miles (4.01 km)
Ceiling: 600 feet AGL
Clouds: scattered clouds at 400 feet AGL
broken clouds at 600 feet AGL
broken clouds at 1500 feet AGL
Weather: RA  (moderate rain)

METAR text: BIKF 250830Z 15023KT 0300 R19/P1500N RA FEW005 SCT007 BKN009 06/06 Q1009
Conditions at: BIKF (KEFLAVIK (CIV/MI, IS) observed 0830 UTC 25 March 2019
Temperature: 6.0°C (43°F)
Dewpoint: 6.0°C (43°F) [RH = 100%]
Pressure (altimeter): 29.79 inches Hg (1009.0 mb)
Winds: from the SSE (150 degrees) at 26 MPH (23 knots; 11.8 m/s)
Visibility: 0.19 miles (0.31 km)
Ceiling: 900 feet AGL
Clouds: few clouds at 500 feet AGL
scattered clouds at 700 feet AGL
broken clouds at 900 feet AGL
Weather: RA  (moderate rain)

METAR text: BIKF 250800Z 15025KT 4500 RA FEW004 BKN007 OVC015 06/06 Q1010
Conditions at: BIKF (KEFLAVIK (CIV/MI, IS) observed 0800 UTC 25 March 2019
Temperature: 6.0°C (43°F)
Dewpoint: 6.0°C (43°F) [RH = 100%]
Pressure (altimeter): 29.82 inches Hg (1010.0 mb)
Winds: from the SSE (150 degrees) at 29 MPH (25 knots; 12.9 m/s)
Visibility: 2.80 miles (4.51 km)
Ceiling: 700 feet AGL
Clouds: few clouds at 400 feet AGL
broken clouds at 700 feet AGL
overcast cloud deck at 1500 feet AGL
Weather: RA  (moderate rain)

METAR text: BIKF 250730Z 16022KT 4500 RA BKN004 OVC012 05/05 Q1010
Conditions at: BIKF (KEFLAVIK (CIV/MI, IS) observed 0730 UTC 25 March 2019
Temperature: 5.0°C (41°F)
Dewpoint: 5.0°C (41°F) [RH = 100%]
Pressure (altimeter): 29.82 inches Hg (1010.0 mb)
Winds: from the SSE (160 degrees) at 25 MPH (22 knots; 11.3 m/s)
Visibility: 2.80 miles (4.51 km)
Ceiling: 400 feet AGL
Clouds: broken clouds at 400 feet AGL
overcast cloud deck at 1200 feet AGL
Weather: RA  (moderate rain)

METAR text: BIKF 250700Z 15020KT 7000 RA FEW005 BKN009 OVC018 05/05 Q1011
Conditions at: BIKF (KEFLAVIK (CIV/MI, IS) observed 0700 UTC 25 March 2019
Temperature: 5.0°C (41°F)
Dewpoint: 5.0°C (41°F) [RH = 100%]
Pressure (altimeter): 29.85 inches Hg (1011.0 mb)
Winds: from the SSE (150 degrees) at 23 MPH (20 knots; 10.3 m/s)
Visibility: 4 miles ( 7 km)
Ceiling: 900 feet AGL
Clouds: few clouds at 500 feet AGL
broken clouds at 900 feet AGL
overcast cloud deck at 1800 feet AGL
Weather: RA  (moderate rain)

METAR text: BIKF 250630Z 15021KT 7000 RA BKN005 OVC012 05/04 Q1011
Conditions at: BIKF (KEFLAVIK (CIV/MI, IS) observed 0630 UTC 25 March 2019
Temperature: 5.0°C (41°F)
Dewpoint: 4.0°C (39°F) [RH = 93%]
Pressure (altimeter): 29.85 inches Hg (1011.0 mb)
Winds: from the SSE (150 degrees) at 24 MPH (21 knots; 10.8 m/s)
Visibility: 4 miles ( 7 km)
Ceiling: 500 feet AGL
Clouds: broken clouds at 500 feet AGL
overcast cloud deck at 1200 feet AGL
Weather: RA  (moderate rain)

METAR text: BIKF 250600Z 14016KT 7000 RA FEW002 BKN007 OVC012 04/04 Q1012
Conditions at: BIKF (KEFLAVIK (CIV/MI, IS) observed 0600 UTC 25 March 2019
Temperature: 4.0°C (39°F)
Dewpoint: 4.0°C (39°F) [RH = 100%]
Pressure (altimeter): 29.88 inches Hg (1012.0 mb)
Winds: from the SE (140 degrees) at 18 MPH (16 knots; 8.2 m/s)
Visibility: 4 miles ( 7 km)
Ceiling: 700 feet AGL
Clouds: few clouds at 200 feet AGL
broken clouds at 700 feet AGL
overcast cloud deck at 1200 feet AGL
Weather: RA  (moderate rain)

METAR text: BIKF 250530Z 14021KT 8000 RA BKN008 OVC017 03/02 Q1012
Conditions at: BIKF (KEFLAVIK (CIV/MI, IS) observed 0530 UTC 25 March 2019
Temperature: 3.0°C (37°F)
Dewpoint: 2.0°C (36°F) [RH = 93%]
Pressure (altimeter): 29.88 inches Hg (1012.0 mb)
Winds: from the SE (140 degrees) at 24 MPH (21 knots; 10.8 m/s)
Visibility: 5 miles ( 8 km)
Ceiling: 800 feet AGL
Clouds: broken clouds at 800 feet AGL
overcast cloud deck at 1700 feet AGL
Weather: RA  (moderate rain)

METAR text: BIKF 250500Z 13018KT 9000 -RA FEW011 BKN017 OVC025 03/02 Q1013
Conditions at: BIKF (KEFLAVIK (CIV/MI, IS) observed 0500 UTC 25 March 2019
Temperature: 3.0°C (37°F)
Dewpoint: 2.0°C (36°F) [RH = 93%]
Pressure (altimeter): 29.91 inches Hg (1013.0 mb)
Winds: from the SE (130 degrees) at 21 MPH (18 knots; 9.3 m/s)
Visibility: 6 miles ( 9 km)
Ceiling: 1700 feet AGL
Clouds: few clouds at 1100 feet AGL
broken clouds at 1700 feet AGL
overcast cloud deck at 2500 feet AGL
Weather: -RA  (light rain)

METAR text: BIKF 250430Z 12018KT 5000 RA FEW011 BKN017 OVC025 02/01 Q1014
Conditions at: BIKF (KEFLAVIK (CIV/MI, IS) observed 0430 UTC 25 March 2019
Temperature: 2.0°C (36°F)
Dewpoint: 1.0°C (34°F) [RH = 93%]
Pressure (altimeter): 29.94 inches Hg (1014.0 mb)
Winds: from the ESE (120 degrees) at 21 MPH (18 knots; 9.3 m/s)
Visibility: 3 miles ( 5 km)
Ceiling: 1700 feet AGL
Clouds: few clouds at 1100 feet AGL
broken clouds at 1700 feet AGL
overcast cloud deck at 2500 feet AGL
Weather: RA  (moderate rain)

METAR text: BIKF 250400Z 12020KT 9000 -RASN FEW012 BKN020 OVC038 01/00 Q1014
Conditions at: BIKF (KEFLAVIK (CIV/MI, IS) observed 0400 UTC 25 March 2019
Temperature: 1.0°C (34°F)
Dewpoint: 0.0°C (32°F) [RH = 93%]
Pressure (altimeter): 29.94 inches Hg (1014.0 mb)
Winds: from the ESE (120 degrees) at 23 MPH (20 knots; 10.3 m/s)
Visibility: 6 miles ( 9 km)
Ceiling: 2000 feet AGL
Clouds: few clouds at 1200 feet AGL
broken clouds at 2000 feet AGL
overcast cloud deck at 3800 feet AGL
Weather: -RA -SN  (light rain, light snow)

METAR text: BIKF 250330Z 13023KT 9000 -RASN FEW012 BKN020 OVC038 01/00 Q1015
Conditions at: BIKF (KEFLAVIK (CIV/MI, IS) observed 0330 UTC 25 March 2019
Temperature: 1.0°C (34°F)
Dewpoint: 0.0°C (32°F) [RH = 93%]
Pressure (altimeter): 29.97 inches Hg (1015.0 mb)
Winds: from the SE (130 degrees) at 26 MPH (23 knots; 11.8 m/s)
Visibility: 6 miles ( 9 km)
Ceiling: 2000 feet AGL
Clouds: few clouds at 1200 feet AGL
broken clouds at 2000 feet AGL
overcast cloud deck at 3800 feet AGL
Weather: -RA -SN  (light rain, light snow)

METAR text: BIKF 250300Z 12018KT 6000 -RASN FEW012 BKN020 OVC038 01/00 Q1015
Conditions at: BIKF (KEFLAVIK (CIV/MI, IS) observed 0300 UTC 25 March 2019
Temperature: 1.0°C (34°F)
Dewpoint: 0.0°C (32°F) [RH = 93%]
Pressure (altimeter): 29.97 inches Hg (1015.0 mb)
Winds: from the ESE (120 degrees) at 21 MPH (18 knots; 9.3 m/s)
Visibility: 4 miles ( 6 km)
Ceiling: 2000 feet AGL
Clouds: few clouds at 1200 feet AGL
broken clouds at 2000 feet AGL
overcast cloud deck at 3800 feet AGL
Weather: -RA -SN  (light rain, light snow)

METAR text: BIKF 250230Z 11019KT 5000 -SN FEW011 BKN018 OVC035 00/M00 Q1016
Conditions at: BIKF (KEFLAVIK (CIV/MI, IS) observed 0230 UTC 25 March 2019
Temperature: 0.0°C (32°F)
Dewpoint: 0.0°C (32°F) [RH = 100%]
Pressure (altimeter): 30.00 inches Hg (1016.0 mb)
Winds: from the ESE (110 degrees) at 22 MPH (19 knots; 9.8 m/s)
Visibility: 3 miles ( 5 km)
Ceiling: 1800 feet AGL
Clouds: few clouds at 1100 feet AGL
broken clouds at 1800 feet AGL
overcast cloud deck at 3500 feet AGL
Weather: -SN  (light snow)

METAR text: BIKF 250200Z 11020KT 3500 -SN FEW007 BKN014 OVC032 M00/M01 Q1017
Conditions at: BIKF (KEFLAVIK (CIV/MI, IS) observed 0200 UTC 25 March 2019
Temperature: 0.0°C (32°F)
Dewpoint: -1.0°C (30°F) [RH = 93%]
Pressure (altimeter): 30.03 inches Hg (1017.0 mb)
Winds: from the ESE (110 degrees) at 23 MPH (20 knots; 10.3 m/s)
Visibility: 2.17 miles (3.49 km)
Ceiling: 1400 feet AGL
Clouds: few clouds at 700 feet AGL
broken clouds at 1400 feet AGL
overcast cloud deck at 3200 feet AGL
Weather: -SN  (light snow)

METAR text: BIKF 250130Z 11017KT 3500 -SN FEW007 BKN014 OVC037 00/M01 Q1018
Conditions at: BIKF (KEFLAVIK (CIV/MI, IS) observed 0130 UTC 25 March 2019
Temperature: 0.0°C (32°F)
Dewpoint: -1.0°C (30°F) [RH = 93%]
Pressure (altimeter): 30.06 inches Hg (1018.0 mb)
Winds: from the ESE (110 degrees) at 20 MPH (17 knots; 8.7 m/s)
Visibility: 2.17 miles (3.49 km)
Ceiling: 1400 feet AGL
Clouds: few clouds at 700 feet AGL
broken clouds at 1400 feet AGL
overcast cloud deck at 3700 feet AGL
Weather: -SN  (light snow)

METAR text: BIKF 250100Z 11015KT 4500 -SN SCT009 BKN017 OVC040 00/M00 Q1018
Conditions at: BIKF (KEFLAVIK (CIV/MI, IS) observed 0100 UTC 25 March 2019
Temperature: 0.0°C (32°F)
Dewpoint: 0.0°C (32°F) [RH = 100%]
Pressure (altimeter): 30.06 inches Hg (1018.0 mb)
Winds: from the ESE (110 degrees) at 17 MPH (15 knots; 7.7 m/s)
Visibility: 2.80 miles (4.51 km)
Ceiling: 1700 feet AGL
Clouds: scattered clouds at 900 feet AGL
broken clouds at 1700 feet AGL
overcast cloud deck at 4000 feet AGL
Weather: -SN  (light snow)

METAR text: BIKF 250030Z 12016KT 4500 -SN FEW012 BKN017 OVC040 00/M01 Q1019
Conditions at: BIKF (KEFLAVIK (CIV/MI, IS) observed 0030 UTC 25 March 2019
Temperature: 0.0°C (32°F)
Dewpoint: -1.0°C (30°F) [RH = 93%]
Pressure (altimeter): 30.09 inches Hg (1019.0 mb)
Winds: from the ESE (120 degrees) at 18 MPH (16 knots; 8.2 m/s)
Visibility: 2.80 miles (4.51 km)
Ceiling: 1700 feet AGL
Clouds: few clouds at 1200 feet AGL
broken clouds at 1700 feet AGL
overcast cloud deck at 4000 feet AGL
Weather: -SN  (light snow)

METAR text: BIKF 250000Z 13015KT 9999 -SN FEW015 SCT027 OVC045 01/M02 Q1019
Conditions at: BIKF (KEFLAVIK (CIV/MI, IS) observed 0000 UTC 25 March 2019
Temperature: 1.0°C (34°F)
Dewpoint: -2.0°C (28°F) [RH = 80%]
Pressure (altimeter): 30.09 inches Hg (1019.0 mb)
Winds: from the SE (130 degrees) at 17 MPH (15 knots; 7.7 m/s)
Visibility: 6 or more miles (10+ km)
Ceiling: 4500 feet AGL
Clouds: few clouds at 1500 feet AGL
scattered clouds at 2700 feet AGL
overcast cloud deck at 4500 feet AGL
Weather: -SN  (light snow)

Forecast for: BIKF (KEFLAVIK (CIV/MI, IS)
Text: TAF BIKF 261022Z 2612/2712 23020KT 9999 -RA BKN020 BKN035 TX05/2706Z TN02/2712Z
Forecast period: 1200 to 2100 UTC 26 March 2019
Forecast type: FROM: standard forecast or significant change
Winds: from the SW (230 degrees) at 23 MPH (20 knots; 10.3 m/s)
Visibility: 6 or more miles 10+ km)
Ceiling: 2000 feet AGL
Clouds: broken clouds at 2000 feet AGL
broken clouds at 3500 feet AGL
Weather: -RA  (light rain)
Text: BECMG 2621/2700 18020G30KT -RASN
Forecast period: 2100 UTC 26 March 2019 to 0100 UTC 27 March 2019
Forecast type: BECOMING: Conditions expected to become as follows by 0000 UTC 27 March 2019
Winds: from the S (180 degrees) at 23 MPH (20 knots; 10.3 m/s)
gusting to 34 MPH (30 knots; 15.4 m/s)
Visibility: 6 or more miles 10+ km)
Ceiling: 2000 feet AGL
Clouds: broken clouds at 2000 feet AGL
broken clouds at 3500 feet AGL
Weather: -RA -SN  (light rain, light snow)
Text: BECMG 2701/2704 18030G40KT 8000 RA BKN014 OVC024
Forecast period: 0100 to 1200 UTC 27 March 2019
Forecast type: BECOMING: Conditions expected to become as follows by 0400 UTC 27 March 2019
Winds: from the S (180 degrees) at 34 MPH (30 knots; 15.4 m/s)
gusting to 46 MPH (40 knots; 20.6 m/s)
Visibility: 5 miles (8 km)
Ceiling: 1400 feet AGL
Clouds: broken clouds at 1400 feet AGL
overcast cloud deck at 2400 feet AGL
Weather: RA  (moderate rain)
Text: TEMPO 2705/2712 2500 RASN BR BKN010 OVC020
Forecast period: 0500 to 1200 UTC 27 March 2019
Forecast type: TEMPORARY: The following changes expected for less than half the time period
Visibility: 1.55 miles (2.49 km)
Ceiling: 1000 feet AGL
Clouds: broken clouds at 1000 feet AGL
overcast cloud deck at 2000 feet AGL
Weather: RA SN BR  (moderate rain, moderate snow, mist)